createdAt,value
2023-03-11T00:00:15.209Z,0.80
2023-03-11T00:02:41.602Z,0.70
2023-03-11T00:05:09.054Z,1.00
2023-03-11T00:07:35.417Z,0.52
2023-03-11T00:10:01.707Z,1.00
2023-03-11T00:12:28.114Z,0.93
2023-03-11T00:14:54.416Z,0.60
2023-03-11T00:17:20.702Z,0.60
2023-03-11T00:19:47.102Z,0.70
2023-03-11T00:22:13.493Z,0.75
2023-03-11T00:24:39.795Z,0.80
2023-03-11T00:27:06.148Z,0.70
2023-03-11T00:29:32.547Z,0.70
2023-03-11T00:31:58.939Z,0.60
2023-03-11T00:34:25.254Z,0.70
2023-03-11T00:36:51.557Z,0.50
2023-03-11T00:39:17.849Z,0.55
2023-03-11T00:41:44.183Z,0.63
2023-03-11T00:44:10.692Z,0.90
2023-03-11T00:46:37.047Z,0.70
2023-03-11T00:49:03.646Z,0.60
2023-03-11T00:51:30.349Z,0.70
2023-03-11T00:53:57.593Z,0.70
2023-03-11T00:56:23.885Z,0.90
2023-03-11T00:58:50.190Z,0.47
2023-03-11T01:01:18.880Z,0.82
2023-03-11T01:03:45.743Z,0.63
2023-03-11T01:06:12.898Z,0.85
2023-03-11T01:08:39.850Z,0.60
2023-03-11T01:11:06.958Z,0.73
2023-03-11T01:13:34.296Z,0.63
2023-03-11T01:16:01.172Z,0.70
2023-03-11T01:18:27.828Z,0.60
2023-03-11T01:20:54.703Z,0.73
2023-03-11T01:23:21.374Z,0.52
2023-03-11T01:25:47.927Z,0.52
2023-03-11T01:28:14.248Z,0.60
2023-03-11T01:30:41.972Z,0.80
2023-03-11T01:33:13.287Z,0.45
2023-03-11T01:35:39.607Z,0.60
2023-03-11T01:38:06.029Z,0.68
2023-03-11T01:40:36.424Z,0.80
2023-03-11T01:43:05.745Z,0.77
2023-03-11T01:45:50.397Z,0.68
2023-03-11T01:48:16.766Z,0.75
2023-03-11T01:50:46.774Z,0.80
2023-03-11T01:53:15.790Z,1.00
2023-03-11T01:55:43.360Z,0.73
2023-03-11T01:58:16.148Z,0.68
2023-03-11T02:00:43.636Z,0.80
2023-03-11T02:03:17.735Z,0.63
2023-03-11T02:05:45.274Z,1.00
2023-03-11T02:08:11.667Z,0.80
2023-03-11T02:10:41.275Z,1.00
2023-03-11T02:13:07.840Z,1.17
2023-03-11T02:15:34.266Z,1.33
2023-03-11T02:18:05.120Z,0.77
2023-03-11T02:20:45.215Z,0.93
2023-03-11T02:25:46.019Z,0.90
2023-03-11T02:28:14.191Z,0.95
2023-03-11T02:30:42.628Z,0.65
2023-03-11T02:33:09.913Z,0.93
2023-03-11T02:35:36.478Z,1.15
2023-03-11T02:38:03.392Z,1.00
2023-03-11T02:40:48.637Z,0.73
2023-03-11T02:43:18.004Z,0.88
2023-03-11T02:45:46.437Z,0.98
2023-03-11T02:48:14.464Z,1.42
2023-03-11T02:50:41.419Z,0.85
2023-03-11T02:53:08.072Z,0.80
2023-03-11T02:55:34.572Z,1.40
2023-03-11T02:58:00.980Z,1.15
2023-03-11T03:00:27.613Z,0.93
2023-03-11T03:02:54.024Z,1.08
2023-03-11T03:05:22.047Z,0.80
2023-03-11T03:07:49.642Z,0.80
2023-03-11T03:10:17.095Z,1.10
2023-03-11T03:12:43.493Z,0.95
2023-03-11T03:15:11.203Z,1.02
2023-03-11T03:17:38.372Z,0.85
2023-03-11T03:20:05.611Z,1.00
2023-03-11T03:22:32.015Z,0.88
2023-03-11T03:24:58.310Z,1.33
2023-03-11T03:27:24.685Z,0.95
2023-03-11T03:29:51.001Z,1.00
2023-03-11T03:32:17.333Z,0.73
2023-03-11T03:34:43.652Z,0.65
2023-03-11T03:37:09.993Z,1.00
2023-03-11T03:39:36.423Z,0.77
2023-03-11T03:42:02.742Z,0.80
2023-03-11T03:44:29.072Z,0.88
2023-03-11T03:46:55.359Z,0.80
2023-03-11T03:49:21.889Z,1.30
2023-03-11T03:51:48.184Z,1.00
2023-03-11T03:54:15.146Z,0.75
2023-03-11T03:56:41.479Z,0.85
2023-03-11T03:59:07.864Z,0.82
2023-03-11T04:01:34.153Z,1.10
2023-03-11T04:04:00.531Z,0.65
2023-03-11T04:06:27.940Z,0.95
2023-03-11T04:08:54.862Z,0.75
2023-03-11T04:11:22.379Z,0.60
2023-03-11T04:13:49.445Z,0.80
2023-03-11T04:16:19.803Z,0.70
2023-03-11T04:18:46.731Z,0.70
2023-03-11T04:21:13.181Z,0.98
2023-03-11T04:23:39.799Z,0.68
2023-03-11T04:26:06.254Z,0.70
2023-03-11T04:28:33.024Z,0.70
2023-03-11T04:30:59.360Z,0.70
2023-03-11T04:33:25.674Z,0.52
2023-03-11T04:35:52.008Z,0.80
2023-03-11T04:38:18.518Z,0.50
2023-03-11T04:40:44.865Z,0.52
2023-03-11T04:43:11.148Z,0.90
2023-03-11T04:45:41.742Z,0.60
2023-03-11T04:48:08.857Z,0.38
2023-03-11T04:50:35.311Z,0.63
2023-03-11T04:53:01.852Z,0.73
2023-03-11T04:55:28.113Z,0.52
2023-03-11T04:57:54.434Z,0.80
2023-03-11T05:00:21.072Z,0.90
2023-03-11T05:02:47.498Z,0.60
2023-03-11T05:05:13.831Z,0.65
2023-03-11T05:07:40.134Z,0.60
2023-03-11T05:10:06.947Z,0.70
2023-03-11T05:12:33.507Z,0.65
2023-03-11T05:14:59.915Z,0.98
2023-03-11T05:17:26.226Z,0.82
2023-03-11T05:19:53.247Z,0.80
2023-03-11T05:22:20.482Z,0.90
2023-03-11T05:24:47.014Z,0.70
2023-03-11T05:27:13.973Z,0.65
2023-03-11T05:29:40.392Z,0.85
2023-03-11T05:32:06.924Z,0.60
2023-03-11T05:34:33.323Z,0.50
2023-03-11T05:37:02.689Z,1.08
2023-03-11T05:39:29.538Z,0.77
2023-03-11T05:41:55.936Z,0.63
2023-03-11T05:44:22.762Z,1.10
2023-03-11T05:46:49.253Z,1.23
2023-03-11T05:49:15.699Z,1.00
2023-03-11T05:51:42.074Z,0.73
2023-03-11T05:54:08.346Z,0.75
2023-03-11T05:56:34.954Z,0.77
2023-03-11T05:59:01.230Z,1.10
2023-03-11T06:01:27.537Z,1.40
2023-03-11T06:03:53.940Z,1.42
2023-03-11T06:06:20.264Z,1.05
2023-03-11T06:08:46.633Z,1.30
2023-03-11T06:11:13.034Z,1.38
2023-03-11T06:13:39.354Z,0.70
2023-03-11T06:16:06.383Z,1.25
2023-03-11T06:18:32.711Z,1.42
2023-03-11T06:21:00.609Z,1.52
2023-03-11T06:28:26.943Z,1.38
2023-03-11T06:30:53.449Z,1.58
2023-03-11T06:33:19.718Z,0.98
2023-03-11T06:35:56.287Z,1.55
2023-03-11T06:38:22.594Z,1.27
2023-03-11T06:40:48.958Z,1.00
2023-03-11T06:43:15.564Z,0.90
2023-03-11T06:45:41.925Z,1.40
2023-03-11T06:48:08.204Z,1.33
2023-03-11T06:50:34.603Z,1.70
2023-03-11T06:53:00.965Z,1.52
2023-03-11T06:55:27.316Z,1.55
2023-03-11T06:57:53.574Z,1.13
2023-03-11T07:00:20.136Z,0.90
2023-03-11T07:02:46.422Z,1.10
2023-03-11T07:05:12.685Z,1.65
2023-03-11T07:07:38.985Z,1.25
2023-03-11T07:10:05.978Z,1.45
2023-03-11T07:12:32.548Z,1.40
2023-03-11T07:14:59.689Z,1.15
2023-03-11T07:17:26.614Z,1.23
2023-03-11T07:19:53.400Z,1.10
2023-03-11T07:22:20.934Z,1.30
2023-03-11T07:24:48.635Z,0.90
2023-03-11T07:27:15.523Z,1.60
2023-03-11T07:29:41.954Z,1.23
2023-03-11T07:32:08.582Z,1.15
2023-03-11T07:34:35.478Z,1.08
2023-03-11T07:37:01.947Z,1.20
2023-03-11T07:39:28.328Z,1.38
2023-03-11T07:41:54.637Z,1.67
2023-03-11T07:44:21.040Z,1.33
2023-03-11T07:46:47.337Z,1.20
2023-03-11T07:49:14.039Z,1.13
2023-03-11T07:51:40.539Z,1.70
2023-03-11T07:54:07.092Z,1.60
2023-03-11T07:56:34.959Z,1.27
2023-03-11T07:59:03.571Z,1.25
2023-03-11T08:01:31.450Z,1.17
2023-03-11T08:03:57.787Z,1.30
2023-03-11T08:06:30.051Z,1.60
2023-03-11T08:11:31.596Z,1.30
2023-03-11T08:13:58.341Z,1.40
2023-03-11T08:16:26.193Z,1.60
2023-03-11T08:21:21.750Z,1.30
2023-03-11T08:23:48.708Z,1.75
2023-03-11T08:26:17.960Z,1.20
2023-03-11T08:28:44.383Z,1.17
2023-03-11T08:31:15.070Z,1.70
2023-03-11T08:33:42.181Z,1.40
2023-03-11T08:36:08.743Z,1.50
2023-03-11T08:38:35.151Z,1.77
2023-03-11T08:41:01.777Z,1.80
2023-03-11T08:43:28.302Z,0.80
2023-03-11T08:45:54.739Z,1.60
2023-03-11T08:48:21.240Z,1.42
2023-03-11T08:50:54.199Z,0.80
2023-03-11T08:53:21.895Z,1.15
2023-03-11T08:55:49.904Z,1.10
2023-03-11T08:58:16.254Z,1.00
2023-03-11T09:00:42.673Z,1.15
2023-03-11T09:03:09.051Z,0.98
2023-03-11T09:05:35.925Z,1.20
2023-03-11T09:08:05.199Z,1.17
2023-03-11T09:10:32.103Z,1.10
2023-03-11T09:12:58.385Z,0.80
2023-03-11T09:15:24.738Z,1.10
2023-03-11T09:17:51.114Z,1.00
2023-03-11T09:20:17.434Z,1.30
2023-03-11T09:22:43.830Z,1.13
2023-03-11T09:25:12.442Z,1.10
2023-03-11T09:27:38.936Z,1.30
2023-03-11T09:30:05.828Z,1.50
2023-03-11T09:32:32.368Z,1.33
2023-03-11T09:34:58.656Z,0.90
2023-03-11T09:37:25.011Z,1.10
2023-03-11T09:39:51.386Z,1.10
2023-03-11T09:42:27.609Z,1.00
2023-03-11T09:45:04.703Z,0.88
2023-03-11T09:48:01.350Z,1.17
2023-03-11T09:50:32.712Z,1.42
2023-03-11T09:53:22.566Z,0.82
2023-03-11T09:55:53.914Z,0.95
2023-03-11T09:58:36.155Z,1.27
2023-03-11T10:01:10.423Z,1.20
2023-03-11T10:03:39.666Z,1.20
2023-03-11T10:06:19.445Z,1.30
2023-03-11T10:08:52.548Z,1.10
2023-03-11T10:11:32.420Z,1.00
2023-03-11T10:16:49.057Z,0.80
2023-03-11T10:19:19.848Z,1.13
2023-03-11T10:22:07.055Z,1.17
2023-03-11T10:24:40.263Z,1.20
2023-03-11T10:27:15.971Z,1.38
2023-03-11T10:29:59.949Z,1.33
2023-03-11T10:32:39.349Z,1.23
2023-03-11T10:35:21.610Z,1.30
2023-03-11T10:37:59.258Z,0.75
2023-03-11T10:40:35.867Z,1.10
2023-03-11T10:43:18.773Z,0.82
2023-03-11T10:45:46.769Z,0.90
2023-03-11T10:48:18.608Z,0.70
2023-03-11T10:50:54.217Z,0.65
2023-03-11T10:53:21.029Z,0.80
2023-03-11T10:55:56.544Z,1.08
2023-03-11T10:58:29.205Z,1.20
2023-03-11T11:01:14.424Z,0.95
2023-03-11T11:03:47.023Z,1.33
2023-03-11T11:06:24.717Z,1.40
2023-03-11T11:09:05.192Z,1.23
2023-03-11T11:11:31.611Z,1.23
2023-03-11T11:13:59.335Z,1.25
2023-03-11T11:19:14.063Z,1.48
2023-03-11T11:21:48.929Z,1.17
2023-03-11T11:24:24.412Z,1.60
2023-03-11T11:27:15.817Z,1.42
2023-03-11T11:29:43.004Z,1.00
2023-03-11T11:32:15.133Z,1.30
2023-03-11T11:34:41.911Z,1.40
2023-03-11T11:37:13.260Z,1.30
2023-03-11T11:39:50.304Z,1.20
2023-03-11T11:42:18.516Z,1.20
2023-03-11T11:44:48.284Z,1.23
2023-03-11T11:47:23.895Z,1.20
2023-03-11T11:49:56.058Z,1.15
2023-03-11T11:52:34.821Z,1.55
2023-03-11T11:55:06.459Z,1.25
2023-03-11T11:57:32.926Z,0.70
2023-03-11T11:59:59.613Z,0.95
2023-03-11T12:02:53.649Z,0.80
2023-03-11T12:05:30.553Z,0.77
2023-03-11T12:08:10.495Z,1.38
2023-03-11T12:10:39.849Z,0.98
2023-03-11T12:13:34.075Z,1.30
2023-03-11T12:16:13.865Z,1.27
2023-03-11T12:21:43.430Z,1.10
2023-03-11T12:24:30.079Z,1.30
2023-03-11T12:27:02.404Z,1.10
2023-03-11T12:29:34.148Z,1.00
2023-03-11T12:32:02.202Z,1.10
2023-03-11T12:34:33.933Z,1.10
2023-03-11T12:37:01.422Z,1.02
2023-03-11T12:39:31.225Z,0.80
2023-03-11T12:42:19.205Z,1.45
2023-03-11T12:44:46.716Z,1.33
2023-03-11T12:47:12.997Z,1.80
2023-03-11T12:49:41.798Z,1.92
2023-03-11T12:52:11.268Z,1.73
2023-03-11T12:54:45.650Z,1.30
2023-03-11T12:57:17.988Z,1.63
2023-03-11T13:00:03.093Z,1.58
2023-03-11T13:03:07.071Z,1.90
2023-03-11T13:05:52.012Z,1.05
2023-03-11T13:08:48.989Z,1.52
2023-03-11T13:11:38.414Z,1.45
2023-03-11T13:14:26.409Z,1.30
2023-03-11T13:16:52.704Z,1.45
2023-03-11T13:19:34.402Z,1.42
2023-03-11T13:22:02.781Z,1.83
2023-03-11T13:24:29.018Z,1.38
2023-03-11T13:27:03.370Z,1.30
2023-03-11T13:29:53.161Z,1.13
2023-03-11T13:32:41.617Z,1.30
2023-03-11T13:35:35.734Z,1.65
2023-03-11T13:38:24.459Z,1.30
2023-03-11T13:40:52.231Z,1.40
2023-03-11T13:45:54.749Z,1.08
2023-03-11T13:48:28.538Z,1.02
2023-03-11T13:51:06.325Z,2.15
2023-03-11T13:53:39.370Z,1.50
2023-03-11T13:56:06.146Z,1.70
2023-03-11T13:58:32.431Z,2.10
2023-03-11T14:01:00.912Z,1.55
2023-03-11T14:03:33.721Z,1.58
2023-03-11T14:06:06.489Z,1.70
2023-03-11T14:08:35.060Z,1.10
2023-03-11T14:11:17.238Z,1.25
2023-03-11T14:13:45.919Z,1.52
2023-03-11T14:16:21.315Z,1.30
2023-03-11T14:19:03.359Z,1.63
2023-03-11T14:21:29.695Z,1.70
2023-03-11T14:23:56.480Z,1.65
2023-03-11T14:26:27.696Z,1.80
2023-03-11T14:28:57.091Z,1.25
2023-03-11T14:31:35.547Z,1.40
2023-03-11T14:34:15.173Z,1.40
2023-03-11T14:36:47.290Z,1.33
2023-03-11T14:39:27.654Z,1.40
2023-03-11T14:42:04.000Z,1.40
2023-03-11T14:44:33.633Z,1.23
2023-03-11T14:47:09.592Z,0.88
2023-03-11T14:49:36.400Z,1.00
2023-03-11T14:52:08.619Z,1.70
2023-03-11T14:54:36.549Z,1.88
2023-03-11T14:57:08.817Z,1.50
2023-03-11T14:59:37.073Z,1.08
2023-03-11T15:02:38.123Z,1.48
2023-03-11T15:05:14.198Z,1.55
2023-03-11T15:07:40.528Z,1.70
2023-03-11T15:10:09.803Z,1.52
2023-03-11T15:12:41.283Z,1.63
2023-03-11T15:15:26.840Z,1.52
2023-03-11T15:17:57.925Z,1.20
2023-03-11T15:20:31.338Z,1.83
2023-03-11T15:23:01.576Z,1.67
2023-03-11T15:25:30.851Z,1.55
2023-03-11T15:27:57.614Z,1.67
2023-03-11T15:30:25.733Z,1.83
2023-03-11T15:32:52.289Z,1.90
2023-03-11T15:35:24.511Z,1.90
2023-03-11T15:38:11.569Z,1.45
2023-03-11T15:40:45.249Z,1.50
2023-03-11T15:43:14.908Z,1.50
2023-03-11T15:45:41.892Z,1.63
2023-03-11T15:48:10.534Z,1.30
2023-03-11T15:50:52.878Z,1.70
2023-03-11T15:53:21.735Z,2.38
2023-03-11T15:55:48.263Z,2.05
2023-03-11T15:58:16.689Z,2.97
2023-03-11T16:00:56.872Z,2.35
2023-03-11T16:03:23.972Z,2.20
2023-03-11T16:05:50.675Z,1.52
2023-03-11T16:08:16.958Z,1.58
2023-03-11T16:10:43.666Z,1.70
2023-03-11T16:13:12.636Z,1.77
2023-03-11T16:15:39.051Z,1.90
2023-03-11T16:18:07.040Z,1.70
2023-03-11T16:20:40.295Z,2.13
2023-03-11T16:23:10.309Z,1.60
2023-03-11T16:25:39.665Z,1.52
2023-03-11T16:28:06.917Z,1.77
2023-03-11T16:30:34.731Z,1.45
2023-03-11T16:35:31.129Z,1.60
2023-03-11T16:37:57.453Z,1.70
2023-03-11T16:40:26.152Z,1.70
2023-03-11T16:42:57.511Z,1.25
2023-03-11T16:45:23.942Z,2.13
2023-03-11T16:47:50.377Z,1.65
2023-03-11T16:50:16.910Z,1.60
2023-03-11T16:52:43.189Z,1.55
2023-03-11T16:55:09.742Z,1.42
2023-03-11T16:57:36.146Z,1.90
2023-03-11T17:00:03.031Z,1.98
2023-03-11T17:02:29.403Z,1.98
2023-03-11T17:04:55.992Z,3.90
2023-03-11T17:07:22.403Z,2.83
2023-03-11T17:09:48.890Z,2.83
2023-03-11T17:12:15.243Z,3.20
2023-03-11T17:14:41.580Z,4.25
2023-03-11T17:17:07.955Z,2.95
2023-03-11T17:19:34.284Z,1.98
2023-03-11T17:22:00.672Z,2.35
2023-03-11T17:24:26.976Z,1.75
2023-03-11T17:26:53.272Z,2.30
2023-03-11T17:29:19.549Z,2.80
2023-03-11T17:31:45.965Z,2.78
2023-03-11T17:34:12.331Z,4.00
2023-03-11T17:36:38.674Z,2.55
2023-03-11T17:39:05.081Z,3.28
2023-03-11T17:41:31.499Z,3.28
2023-03-11T17:43:57.799Z,3.10
2023-03-11T17:46:24.322Z,5.75
2023-03-11T17:48:51.100Z,1.88
2023-03-11T17:51:20.436Z,3.08
2023-03-11T17:53:48.364Z,2.15
2023-03-11T17:56:17.400Z,1.77
2023-03-11T17:58:44.579Z,1.70
2023-03-11T18:01:15.032Z,2.15
2023-03-11T18:03:42.159Z,3.03
2023-03-11T18:06:09.472Z,2.65
2023-03-11T18:08:36.635Z,3.05
2023-03-11T18:11:06.260Z,2.80
2023-03-11T18:13:33.815Z,2.42
2023-03-11T18:16:06.919Z,2.20
2023-03-11T18:18:34.934Z,2.78
2023-03-11T18:21:07.013Z,3.92
2023-03-11T18:23:35.424Z,3.72
2023-03-11T18:26:04.210Z,7.95
2023-03-11T18:28:30.592Z,17.33
2023-03-11T18:30:56.997Z,5.57
2023-03-11T18:33:24.341Z,3.60
2023-03-11T18:35:50.805Z,4.90
2023-03-11T18:38:17.144Z,3.58
2023-03-11T18:40:43.496Z,6.85
2023-03-11T18:43:12.553Z,4.95
2023-03-11T18:45:39.850Z,4.95
2023-03-11T18:48:06.309Z,5.75
2023-03-11T18:50:32.631Z,6.35
2023-03-11T18:52:58.969Z,7.13
2023-03-11T18:55:25.326Z,4.45
2023-03-11T18:57:51.614Z,3.75
2023-03-11T19:00:18.367Z,3.30
2023-03-11T19:02:44.762Z,2.83
2023-03-11T19:05:11.197Z,4.85
2023-03-11T19:07:37.604Z,4.40
2023-03-11T19:10:04.294Z,4.13
2023-03-11T19:12:30.735Z,3.00
2023-03-11T19:14:57.036Z,2.55
2023-03-11T19:17:23.446Z,3.53
2023-03-11T19:19:49.797Z,3.58
2023-03-11T19:22:16.112Z,3.30
2023-03-11T19:24:42.433Z,3.33
2023-03-11T19:27:08.732Z,3.55
2023-03-11T19:29:35.172Z,3.65
2023-03-11T19:32:03.474Z,2.97
2023-03-11T19:34:29.961Z,2.92
2023-03-11T19:36:56.275Z,6.95
2023-03-11T19:39:22.584Z,10.10
2023-03-11T19:41:48.889Z,10.57
2023-03-11T19:44:15.425Z,8.88
2023-03-11T19:46:41.814Z,7.57
2023-03-11T19:49:08.266Z,6.88
2023-03-11T19:51:48.481Z,7.82
2023-03-11T19:54:16.460Z,9.30
2023-03-11T19:56:42.931Z,9.40
2023-03-11T19:59:09.236Z,12.90
2023-03-11T20:01:35.646Z,10.30
2023-03-11T20:04:01.970Z,7.97
2023-03-11T20:06:28.406Z,7.53
2023-03-11T20:08:54.741Z,8.38
2023-03-11T20:11:21.755Z,9.25
2023-03-11T20:13:48.133Z,9.95
2023-03-11T20:16:18.755Z,9.38
2023-03-11T20:18:48.811Z,9.65
2023-03-11T20:21:15.198Z,11.90
2023-03-11T20:23:41.616Z,11.45
2023-03-11T20:26:13.819Z,10.20
2023-03-11T20:28:40.791Z,8.38
2023-03-11T20:31:15.864Z,7.40
2023-03-11T20:33:42.437Z,6.15
2023-03-11T20:36:12.869Z,6.50
2023-03-11T20:38:39.619Z,6.00
2023-03-11T20:41:06.364Z,5.60
2023-03-11T20:43:33.693Z,6.10
2023-03-11T20:46:00.815Z,6.35
2023-03-11T20:48:28.215Z,8.20
2023-03-11T20:50:54.610Z,10.40
2023-03-11T20:53:21.029Z,9.43
2023-03-11T20:55:47.401Z,8.88
2023-03-11T20:58:13.792Z,9.05
2023-03-11T21:00:40.137Z,9.40
2023-03-11T21:03:06.504Z,9.65
2023-03-11T21:05:37.043Z,9.30
2023-03-11T21:08:04.146Z,8.95
2023-03-11T21:10:31.058Z,8.38
2023-03-11T21:12:57.492Z,8.43
2023-03-11T21:15:24.072Z,8.07
2023-03-11T21:17:50.450Z,7.75
2023-03-11T21:20:17.028Z,8.32
2023-03-11T21:22:43.473Z,9.65
2023-03-11T21:25:09.796Z,8.38
2023-03-11T21:27:36.178Z,8.32
2023-03-11T21:30:02.502Z,8.90
2023-03-11T21:32:29.007Z,7.88
2023-03-11T21:34:57.633Z,8.15
2023-03-11T21:37:24.492Z,10.20
2023-03-11T21:39:51.123Z,10.18
2023-03-11T21:42:18.268Z,10.88
2023-03-11T21:44:44.701Z,9.68
2023-03-11T21:47:12.246Z,10.95
2023-03-11T21:49:38.535Z,9.63
2023-03-11T21:52:06.586Z,8.13
2023-03-11T21:54:33.065Z,7.82
2023-03-11T21:56:59.411Z,7.78
2023-03-11T21:59:26.106Z,6.70
2023-03-11T22:01:52.843Z,7.45
2023-03-11T22:04:19.388Z,8.25
2023-03-11T22:06:45.816Z,11.77
2023-03-11T22:09:12.284Z,11.60
2023-03-11T22:11:38.619Z,12.63
2023-03-11T22:14:04.961Z,11.50
2023-03-11T22:16:31.502Z,9.60
2023-03-11T22:18:57.862Z,7.47
2023-03-11T22:21:24.389Z,7.00
2023-03-11T22:23:50.889Z,6.82
2023-03-11T22:26:17.533Z,6.97
2023-03-11T22:28:43.833Z,7.72
2023-03-11T22:31:12.883Z,9.88
2023-03-11T22:33:39.759Z,8.57
2023-03-11T22:36:07.067Z,7.28
2023-03-11T22:38:33.503Z,6.82
2023-03-11T22:40:59.998Z,5.88
2023-03-11T22:43:27.012Z,6.72
2023-03-11T22:45:53.486Z,5.40
2023-03-11T22:48:19.843Z,6.40
2023-03-11T22:50:46.136Z,6.75
2023-03-11T22:53:13.033Z,7.88
2023-03-11T22:55:40.438Z,8.30
2023-03-11T22:58:07.270Z,7.70
2023-03-11T23:00:33.660Z,7.63
2023-03-11T23:02:59.942Z,6.90
2023-03-11T23:05:26.248Z,7.95
2023-03-11T23:07:52.575Z,7.40
2023-03-11T23:10:21.267Z,8.30
2023-03-11T23:12:48.235Z,7.53
2023-03-11T23:15:17.892Z,7.38
2023-03-11T23:17:44.776Z,8.00
2023-03-11T23:20:15.714Z,8.15
2023-03-11T23:22:42.363Z,7.47
2023-03-11T23:25:12.420Z,7.60
2023-03-11T23:27:38.742Z,7.65
2023-03-11T23:30:06.243Z,7.07
2023-03-11T23:32:32.866Z,7.57
2023-03-11T23:34:59.300Z,6.13
2023-03-11T23:37:25.614Z,6.63
2023-03-11T23:39:51.950Z,7.15
2023-03-11T23:42:25.508Z,6.65
2023-03-11T23:44:53.098Z,5.93
2023-03-11T23:47:19.568Z,6.03
2023-03-11T23:49:45.872Z,6.68
2023-03-11T23:52:12.207Z,6.35
2023-03-11T23:54:38.543Z,7.25
2023-03-11T23:57:04.835Z,7.35
2023-03-11T23:59:31.161Z,7.25
